sensor_id;sensor_type;location;lat;lon;timestamp;P1;durP1;ratioP1;P2;durP2;ratioP2
49458;SDS011;35354;51.296;16.924;2023-04-01T00:00:24;5.90;;;4.40;;
49458;SDS011;35354;51.296;16.924;2023-04-01T00:02:50;6.20;;;4.60;;
49458;SDS011;35354;51.296;16.924;2023-04-01T00:05:15;6.57;;;4.55;;
49458;SDS011;35354;51.296;16.924;2023-04-01T00:07:41;6.68;;;3.97;;
49458;SDS011;35354;51.296;16.924;2023-04-01T00:10:08;6.97;;;3.75;;
49458;SDS011;35354;51.296;16.924;2023-04-01T00:12:35;6.40;;;4.10;;
49458;SDS011;35354;51.296;16.924;2023-04-01T00:15:01;6.82;;;4.57;;
49458;SDS011;35354;51.296;16.924;2023-04-01T00:17:26;5.70;;;4.32;;
49458;SDS011;35354;51.296;16.924;2023-04-01T00:19:54;6.40;;;4.55;;
49458;SDS011;35354;51.296;16.924;2023-04-01T00:22:20;7.93;;;4.78;;
49458;SDS011;35354;51.296;16.924;2023-04-01T00:24:45;5.35;;;4.82;;
49458;SDS011;35354;51.296;16.924;2023-04-01T00:27:10;7.32;;;4.40;;
49458;SDS011;35354;51.296;16.924;2023-04-01T00:29:35;6.35;;;3.92;;
49458;SDS011;35354;51.296;16.924;2023-04-01T00:32:01;6.50;;;4.13;;
49458;SDS011;35354;51.296;16.924;2023-04-01T00:34:26;9.32;;;4.35;;
49458;SDS011;35354;51.296;16.924;2023-04-01T00:36:52;4.90;;;3.45;;
49458;SDS011;35354;51.296;16.924;2023-04-01T00:39:19;6.20;;;3.63;;
49458;SDS011;35354;51.296;16.924;2023-04-01T00:41:45;5.38;;;3.50;;
49458;SDS011;35354;51.296;16.924;2023-04-01T00:44:14;5.15;;;3.63;;
49458;SDS011;35354;51.296;16.924;2023-04-01T00:49:08;5.28;;;4.18;;
49458;SDS011;35354;51.296;16.924;2023-04-01T00:51:34;6.65;;;4.38;;
49458;SDS011;35354;51.296;16.924;2023-04-01T00:54:03;8.75;;;3.97;;
49458;SDS011;35354;51.296;16.924;2023-04-01T00:56:32;6.75;;;4.35;;
49458;SDS011;35354;51.296;16.924;2023-04-01T00:59:01;5.82;;;4.35;;
49458;SDS011;35354;51.296;16.924;2023-04-01T01:01:33;8.45;;;4.35;;
49458;SDS011;35354;51.296;16.924;2023-04-01T01:04:00;9.25;;;5.03;;
49458;SDS011;35354;51.296;16.924;2023-04-01T01:06:39;8.65;;;4.72;;
49458;SDS011;35354;51.296;16.924;2023-04-01T01:11:53;8.77;;;3.72;;
49458;SDS011;35354;51.296;16.924;2023-04-01T01:17:16;7.57;;;3.88;;
49458;SDS011;35354;51.296;16.924;2023-04-01T01:24:54;6.47;;;4.07;;
49458;SDS011;35354;51.296;16.924;2023-04-01T01:27:21;8.75;;;4.00;;
49458;SDS011;35354;51.296;16.924;2023-04-01T01:29:52;7.55;;;3.63;;
49458;SDS011;35354;51.296;16.924;2023-04-01T01:37:55;7.00;;;4.15;;
49458;SDS011;35354;51.296;16.924;2023-04-01T01:40:27;7.88;;;4.10;;
49458;SDS011;35354;51.296;16.924;2023-04-01T01:42:56;10.63;;;4.70;;
49458;SDS011;35354;51.296;16.924;2023-04-01T01:45:26;6.78;;;4.13;;
49458;SDS011;35354;51.296;16.924;2023-04-01T01:47:52;8.80;;;4.63;;
49458;SDS011;35354;51.296;16.924;2023-04-01T01:50:20;9.02;;;5.15;;
49458;SDS011;35354;51.296;16.924;2023-04-01T01:52:47;9.23;;;5.47;;
49458;SDS011;35354;51.296;16.924;2023-04-01T01:55:24;7.50;;;5.65;;
49458;SDS011;35354;51.296;16.924;2023-04-01T01:57:52;7.97;;;5.68;;
49458;SDS011;35354;51.296;16.924;2023-04-01T02:00:20;7.82;;;6.10;;
49458;SDS011;35354;51.296;16.924;2023-04-01T02:02:46;9.25;;;5.50;;
49458;SDS011;35354;51.296;16.924;2023-04-01T02:05:21;8.88;;;6.18;;
49458;SDS011;35354;51.296;16.924;2023-04-01T02:07:52;6.00;;;5.13;;
49458;SDS011;35354;51.296;16.924;2023-04-01T02:10:26;9.07;;;5.97;;
49458;SDS011;35354;51.296;16.924;2023-04-01T02:12:54;6.10;;;5.38;;
49458;SDS011;35354;51.296;16.924;2023-04-01T02:15:23;12.25;;;6.13;;
49458;SDS011;35354;51.296;16.924;2023-04-01T02:17:52;8.00;;;5.47;;
49458;SDS011;35354;51.296;16.924;2023-04-01T02:20:19;8.75;;;5.65;;
49458;SDS011;35354;51.296;16.924;2023-04-01T02:22:51;14.13;;;6.15;;
49458;SDS011;35354;51.296;16.924;2023-04-01T02:25:23;10.30;;;5.55;;
49458;SDS011;35354;51.296;16.924;2023-04-01T02:27:52;10.27;;;5.50;;
49458;SDS011;35354;51.296;16.924;2023-04-01T02:30:20;8.05;;;5.22;;
49458;SDS011;35354;51.296;16.924;2023-04-01T02:32:46;9.35;;;5.53;;
49458;SDS011;35354;51.296;16.924;2023-04-01T02:35:13;8.73;;;5.22;;
49458;SDS011;35354;51.296;16.924;2023-04-01T02:37:40;12.38;;;6.50;;
49458;SDS011;35354;51.296;16.924;2023-04-01T02:40:11;9.40;;;5.57;;
49458;SDS011;35354;51.296;16.924;2023-04-01T02:42:38;8.68;;;4.85;;
49458;SDS011;35354;51.296;16.924;2023-04-01T02:45:03;6.15;;;4.20;;
49458;SDS011;35354;51.296;16.924;2023-04-01T02:47:30;10.35;;;5.25;;
49458;SDS011;35354;51.296;16.924;2023-04-01T02:49:55;9.00;;;4.75;;
49458;SDS011;35354;51.296;16.924;2023-04-01T02:52:26;6.55;;;4.22;;
49458;SDS011;35354;51.296;16.924;2023-04-01T02:54:53;5.57;;;4.50;;
49458;SDS011;35354;51.296;16.924;2023-04-01T02:57:18;7.13;;;4.05;;
49458;SDS011;35354;51.296;16.924;2023-04-01T02:59:45;7.80;;;4.28;;
49458;SDS011;35354;51.296;16.924;2023-04-01T03:02:10;7.35;;;3.95;;
49458;SDS011;35354;51.296;16.924;2023-04-01T03:04:35;8.73;;;4.78;;
49458;SDS011;35354;51.296;16.924;2023-04-01T03:07:01;7.57;;;3.72;;
49458;SDS011;35354;51.296;16.924;2023-04-01T03:09:26;9.32;;;4.68;;
49458;SDS011;35354;51.296;16.924;2023-04-01T03:11:51;6.70;;;4.20;;
49458;SDS011;35354;51.296;16.924;2023-04-01T03:14:17;6.60;;;4.07;;
49458;SDS011;35354;51.296;16.924;2023-04-01T03:16:42;6.68;;;4.00;;
49458;SDS011;35354;51.296;16.924;2023-04-01T03:19:07;7.60;;;4.07;;
49458;SDS011;35354;51.296;16.924;2023-04-01T03:21:33;9.10;;;4.57;;
49458;SDS011;35354;51.296;16.924;2023-04-01T03:23:58;7.45;;;4.18;;
49458;SDS011;35354;51.296;16.924;2023-04-01T03:26:23;7.97;;;4.70;;
49458;SDS011;35354;51.296;16.924;2023-04-01T03:28:49;7.93;;;4.82;;
49458;SDS011;35354;51.296;16.924;2023-04-01T03:31:14;6.60;;;3.80;;
49458;SDS011;35354;51.296;16.924;2023-04-01T03:33:41;9.07;;;4.40;;
49458;SDS011;35354;51.296;16.924;2023-04-01T03:36:06;8.82;;;4.45;;
49458;SDS011;35354;51.296;16.924;2023-04-01T03:38:33;10.82;;;4.47;;
49458;SDS011;35354;51.296;16.924;2023-04-01T03:40:59;7.95;;;4.47;;
49458;SDS011;35354;51.296;16.924;2023-04-01T03:43:24;7.88;;;4.88;;
49458;SDS011;35354;51.296;16.924;2023-04-01T03:45:51;8.38;;;5.18;;
49458;SDS011;35354;51.296;16.924;2023-04-01T03:48:17;8.18;;;4.65;;
49458;SDS011;35354;51.296;16.924;2023-04-01T03:50:43;8.68;;;5.40;;
49458;SDS011;35354;51.296;16.924;2023-04-01T03:53:09;8.45;;;5.30;;
49458;SDS011;35354;51.296;16.924;2023-04-01T03:55:35;6.10;;;4.80;;
49458;SDS011;35354;51.296;16.924;2023-04-01T03:58:01;7.47;;;5.32;;
49458;SDS011;35354;51.296;16.924;2023-04-01T04:00:28;8.00;;;5.63;;
49458;SDS011;35354;51.296;16.924;2023-04-01T04:02:54;12.73;;;5.60;;
49458;SDS011;35354;51.296;16.924;2023-04-01T04:05:20;7.30;;;4.95;;
49458;SDS011;35354;51.296;16.924;2023-04-01T04:07:46;7.82;;;4.78;;
49458;SDS011;35354;51.296;16.924;2023-04-01T04:10:11;9.85;;;5.13;;
49458;SDS011;35354;51.296;16.924;2023-04-01T04:12:36;8.88;;;4.82;;
49458;SDS011;35354;51.296;16.924;2023-04-01T04:15:02;7.68;;;5.38;;
49458;SDS011;35354;51.296;16.924;2023-04-01T04:17:27;8.13;;;5.20;;
49458;SDS011;35354;51.296;16.924;2023-04-01T04:19:52;7.80;;;4.60;;
49458;SDS011;35354;51.296;16.924;2023-04-01T04:22:18;9.80;;;5.78;;
49458;SDS011;35354;51.296;16.924;2023-04-01T04:24:43;6.68;;;5.28;;
49458;SDS011;35354;51.296;16.924;2023-04-01T04:27:08;8.23;;;5.15;;
49458;SDS011;35354;51.296;16.924;2023-04-01T04:29:33;9.98;;;5.35;;
49458;SDS011;35354;51.296;16.924;2023-04-01T04:31:59;9.48;;;5.32;;
49458;SDS011;35354;51.296;16.924;2023-04-01T04:34:25;8.32;;;5.60;;
49458;SDS011;35354;51.296;16.924;2023-04-01T04:36:50;9.80;;;5.75;;
49458;SDS011;35354;51.296;16.924;2023-04-01T04:39:15;6.72;;;5.20;;
49458;SDS011;35354;51.296;16.924;2023-04-01T04:41:41;10.57;;;5.45;;
49458;SDS011;35354;51.296;16.924;2023-04-01T04:44:06;5.97;;;5.25;;
49458;SDS011;35354;51.296;16.924;2023-04-01T04:46:32;8.88;;;5.97;;
49458;SDS011;35354;51.296;16.924;2023-04-01T04:48:57;9.55;;;6.55;;
49458;SDS011;35354;51.296;16.924;2023-04-01T04:51:23;9.60;;;6.22;;
49458;SDS011;35354;51.296;16.924;2023-04-01T04:53:48;9.13;;;6.10;;
49458;SDS011;35354;51.296;16.924;2023-04-01T04:56:20;7.88;;;6.00;;
49458;SDS011;35354;51.296;16.924;2023-04-01T04:58:46;6.80;;;5.60;;
49458;SDS011;35354;51.296;16.924;2023-04-01T05:01:13;9.27;;;6.05;;
49458;SDS011;35354;51.296;16.924;2023-04-01T05:03:40;8.98;;;5.60;;
49458;SDS011;35354;51.296;16.924;2023-04-01T05:06:06;7.13;;;4.95;;
49458;SDS011;35354;51.296;16.924;2023-04-01T05:08:33;7.00;;;5.50;;
49458;SDS011;35354;51.296;16.924;2023-04-01T05:10:59;7.95;;;5.60;;
49458;SDS011;35354;51.296;16.924;2023-04-01T05:13:25;5.88;;;5.30;;
49458;SDS011;35354;51.296;16.924;2023-04-01T05:15:50;8.20;;;5.47;;
49458;SDS011;35354;51.296;16.924;2023-04-01T05:18:16;7.88;;;5.25;;
49458;SDS011;35354;51.296;16.924;2023-04-01T05:20:48;8.40;;;5.95;;
49458;SDS011;35354;51.296;16.924;2023-04-01T05:23:15;6.43;;;5.72;;
49458;SDS011;35354;51.296;16.924;2023-04-01T05:25:41;7.93;;;6.90;;
49458;SDS011;35354;51.296;16.924;2023-04-01T05:28:06;9.15;;;6.20;;
49458;SDS011;35354;51.296;16.924;2023-04-01T05:30:31;10.70;;;6.60;;
49458;SDS011;35354;51.296;16.924;2023-04-01T05:32:57;7.15;;;6.45;;
49458;SDS011;35354;51.296;16.924;2023-04-01T05:35:22;9.38;;;6.47;;
49458;SDS011;35354;51.296;16.924;2023-04-01T05:37:48;9.90;;;7.13;;
49458;SDS011;35354;51.296;16.924;2023-04-01T05:40:14;8.18;;;7.18;;
49458;SDS011;35354;51.296;16.924;2023-04-01T05:42:39;8.52;;;7.13;;
49458;SDS011;35354;51.296;16.924;2023-04-01T05:45:05;9.30;;;7.90;;
49458;SDS011;35354;51.296;16.924;2023-04-01T05:47:31;8.30;;;7.15;;
49458;SDS011;35354;51.296;16.924;2023-04-01T05:49:56;10.10;;;6.63;;
49458;SDS011;35354;51.296;16.924;2023-04-01T05:52:21;9.15;;;7.22;;
49458;SDS011;35354;51.296;16.924;2023-04-01T05:54:46;10.05;;;7.65;;
49458;SDS011;35354;51.296;16.924;2023-04-01T05:57:12;8.63;;;7.72;;
49458;SDS011;35354;51.296;16.924;2023-04-01T05:59:37;9.38;;;7.43;;
49458;SDS011;35354;51.296;16.924;2023-04-01T06:02:02;11.82;;;7.72;;
49458;SDS011;35354;51.296;16.924;2023-04-01T06:04:28;9.48;;;7.13;;
49458;SDS011;35354;51.296;16.924;2023-04-01T06:07:00;8.85;;;7.35;;
49458;SDS011;35354;51.296;16.924;2023-04-01T06:09:26;8.18;;;7.32;;
49458;SDS011;35354;51.296;16.924;2023-04-01T06:40:03;7.18;;;6.15;;
49458;SDS011;35354;51.296;16.924;2023-04-01T06:45:36;6.85;;;5.80;;
49458;SDS011;35354;51.296;16.924;2023-04-01T06:48:19;7.65;;;5.50;;
49458;SDS011;35354;51.296;16.924;2023-04-01T06:51:07;6.55;;;5.18;;
49458;SDS011;35354;51.296;16.924;2023-04-01T06:53:59;6.40;;;5.00;;
49458;SDS011;35354;51.296;16.924;2023-04-01T06:56:29;8.57;;;6.28;;
49458;SDS011;35354;51.296;16.924;2023-04-01T06:58:58;5.65;;;5.15;;
49458;SDS011;35354;51.296;16.924;2023-04-01T07:01:49;7.50;;;5.47;;
49458;SDS011;35354;51.296;16.924;2023-04-01T07:07:18;7.97;;;5.30;;
49458;SDS011;35354;51.296;16.924;2023-04-01T07:10:09;6.20;;;5.57;;
49458;SDS011;35354;51.296;16.924;2023-04-01T07:12:46;6.40;;;4.47;;
49458;SDS011;35354;51.296;16.924;2023-04-01T07:15:24;4.35;;;3.95;;
49458;SDS011;35354;51.296;16.924;2023-04-01T07:17:55;4.97;;;4.47;;
49458;SDS011;35354;51.296;16.924;2023-04-01T07:20:28;4.40;;;4.00;;
49458;SDS011;35354;51.296;16.924;2023-04-01T07:22:57;5.07;;;4.43;;
49458;SDS011;35354;51.296;16.924;2023-04-01T07:25:35;5.82;;;4.47;;
49458;SDS011;35354;51.296;16.924;2023-04-01T07:28:04;4.38;;;3.97;;
49458;SDS011;35354;51.296;16.924;2023-04-01T07:30:44;6.88;;;5.25;;
49458;SDS011;35354;51.296;16.924;2023-04-01T07:36:23;5.10;;;4.60;;
49458;SDS011;35354;51.296;16.924;2023-04-01T07:39:13;5.97;;;4.78;;
49458;SDS011;35354;51.296;16.924;2023-04-01T07:46:56;7.30;;;6.05;;
49458;SDS011;35354;51.296;16.924;2023-04-01T08:00:26;6.25;;;5.22;;
49458;SDS011;35354;51.296;16.924;2023-04-01T08:05:59;6.47;;;5.90;;
49458;SDS011;35354;51.296;16.924;2023-04-01T08:08:42;11.77;;;9.73;;
49458;SDS011;35354;51.296;16.924;2023-04-01T08:14:07;7.07;;;6.03;;
49458;SDS011;35354;51.296;16.924;2023-04-01T08:19:36;9.35;;;8.32;;
49458;SDS011;35354;51.296;16.924;2023-04-01T08:22:09;13.40;;;10.30;;
49458;SDS011;35354;51.296;16.924;2023-04-01T08:24:43;13.18;;;10.35;;
49458;SDS011;35354;51.296;16.924;2023-04-01T08:27:26;11.57;;;10.38;;
49458;SDS011;35354;51.296;16.924;2023-04-01T08:33:00;7.45;;;6.75;;
49458;SDS011;35354;51.296;16.924;2023-04-01T08:38:23;6.18;;;5.10;;
49458;SDS011;35354;51.296;16.924;2023-04-01T08:52:00;4.60;;;4.05;;
49458;SDS011;35354;51.296;16.924;2023-04-01T09:00:18;4.63;;;3.45;;
49458;SDS011;35354;51.296;16.924;2023-04-01T09:06:01;4.10;;;3.47;;
49458;SDS011;35354;51.296;16.924;2023-04-01T09:11:25;10.63;;;6.57;;
49458;SDS011;35354;51.296;16.924;2023-04-01T09:25:19;3.85;;;3.15;;
49458;SDS011;35354;51.296;16.924;2023-04-01T09:30:34;3.85;;;3.53;;
49458;SDS011;35354;51.296;16.924;2023-04-01T09:35:59;4.15;;;3.80;;
49458;SDS011;35354;51.296;16.924;2023-04-01T09:38:31;3.67;;;3.22;;
49458;SDS011;35354;51.296;16.924;2023-04-01T09:46:36;4.10;;;3.45;;
49458;SDS011;35354;51.296;16.924;2023-04-01T10:17:51;4.60;;;4.20;;
49458;SDS011;35354;51.296;16.924;2023-04-01T10:45:38;4.57;;;4.18;;
49458;SDS011;35354;51.296;16.924;2023-04-01T10:48:13;6.00;;;4.17;;
49458;SDS011;35354;51.296;16.924;2023-04-01T10:51:04;3.85;;;3.45;;
49458;SDS011;35354;51.296;16.924;2023-04-01T11:10:38;3.50;;;2.30;;
49458;SDS011;35354;51.296;16.924;2023-04-01T11:36:16;4.10;;;3.70;;
49458;SDS011;35354;51.296;16.924;2023-04-01T11:45:12;5.18;;;4.68;;
49458;SDS011;35354;51.296;16.924;2023-04-01T11:47:51;3.75;;;3.30;;
49458;SDS011;35354;51.296;16.924;2023-04-01T11:50:51;5.10;;;4.13;;
49458;SDS011;35354;51.296;16.924;2023-04-01T12:02:10;6.75;;;5.25;;
49458;SDS011;35354;51.296;16.924;2023-04-01T12:10:18;8.20;;;5.70;;
49458;SDS011;35354;51.296;16.924;2023-04-01T12:21:17;4.30;;;3.90;;
49458;SDS011;35354;51.296;16.924;2023-04-01T12:29:18;9.02;;;7.43;;
49458;SDS011;35354;51.296;16.924;2023-04-01T12:32:05;9.48;;;8.48;;
49458;SDS011;35354;51.296;16.924;2023-04-01T12:40:20;4.88;;;4.28;;
49458;SDS011;35354;51.296;16.924;2023-04-01T12:52:00;7.03;;;5.90;;
49458;SDS011;35354;51.296;16.924;2023-04-01T13:08:08;7.22;;;6.55;;
49458;SDS011;35354;51.296;16.924;2023-04-01T13:16:46;5.30;;;3.75;;
49458;SDS011;35354;51.296;16.924;2023-04-01T13:19:18;3.92;;;3.60;;
49458;SDS011;35354;51.296;16.924;2023-04-01T13:35:37;4.97;;;4.40;;
49458;SDS011;35354;51.296;16.924;2023-04-01T13:41:01;3.65;;;2.65;;
49458;SDS011;35354;51.296;16.924;2023-04-01T14:06:05;11.50;;;6.47;;
49458;SDS011;35354;51.296;16.924;2023-04-01T14:11:28;9.30;;;7.60;;
49458;SDS011;35354;51.296;16.924;2023-04-01T14:14:11;9.82;;;8.02;;
49458;SDS011;35354;51.296;16.924;2023-04-01T14:17:05;12.60;;;9.57;;
49458;SDS011;35354;51.296;16.924;2023-04-01T14:19:56;11.65;;;7.50;;
49458;SDS011;35354;51.296;16.924;2023-04-01T14:22:56;8.85;;;5.78;;
49458;SDS011;35354;51.296;16.924;2023-04-01T14:29:06;33.78;;;27.23;;
49458;SDS011;35354;51.296;16.924;2023-04-01T14:32:07;14.55;;;12.07;;
49458;SDS011;35354;51.296;16.924;2023-04-01T14:49:47;67.57;;;53.13;;
49458;SDS011;35354;51.296;16.924;2023-04-01T14:52:22;34.95;;;31.20;;
49458;SDS011;35354;51.296;16.924;2023-04-01T14:54:52;32.60;;;24.98;;
49458;SDS011;35354;51.296;16.924;2023-04-01T15:00:00;38.80;;;29.77;;
49458;SDS011;35354;51.296;16.924;2023-04-01T15:05:27;39.35;;;33.28;;
49458;SDS011;35354;51.296;16.924;2023-04-01T15:11:05;39.67;;;28.05;;
49458;SDS011;35354;51.296;16.924;2023-04-01T15:25:37;23.58;;;21.17;;
49458;SDS011;35354;51.296;16.924;2023-04-01T15:31:11;128.75;;;117.00;;
49458;SDS011;35354;51.296;16.924;2023-04-01T15:34:16;20.75;;;18.55;;
49458;SDS011;35354;51.296;16.924;2023-04-01T15:36:56;13.60;;;11.27;;
49458;SDS011;35354;51.296;16.924;2023-04-01T15:39:31;27.10;;;20.15;;
49458;SDS011;35354;51.296;16.924;2023-04-01T15:42:27;49.75;;;42.83;;
49458;SDS011;35354;51.296;16.924;2023-04-01T15:47:42;25.45;;;18.42;;
49458;SDS011;35354;51.296;16.924;2023-04-01T15:55:54;41.03;;;33.25;;
49458;SDS011;35354;51.296;16.924;2023-04-01T15:58:32;34.78;;;30.55;;
49458;SDS011;35354;51.296;16.924;2023-04-01T16:09:30;29.77;;;21.98;;
49458;SDS011;35354;51.296;16.924;2023-04-01T16:22:37;31.75;;;26.08;;
49458;SDS011;35354;51.296;16.924;2023-04-01T16:31:03;43.28;;;34.08;;
49458;SDS011;35354;51.296;16.924;2023-04-01T16:47:45;33.42;;;26.40;;
49458;SDS011;35354;51.296;16.924;2023-04-01T16:50:24;44.13;;;35.60;;
49458;SDS011;35354;51.296;16.924;2023-04-01T16:55:52;36.60;;;29.95;;
49458;SDS011;35354;51.296;16.924;2023-04-01T17:01:12;40.47;;;31.45;;
49458;SDS011;35354;51.296;16.924;2023-04-01T17:03:44;37.65;;;30.05;;
49458;SDS011;35354;51.296;16.924;2023-04-01T17:14:27;54.83;;;39.47;;
49458;SDS011;35354;51.296;16.924;2023-04-01T17:17:10;57.58;;;41.40;;
49458;SDS011;35354;51.296;16.924;2023-04-01T17:19:46;64.88;;;43.65;;
49458;SDS011;35354;51.296;16.924;2023-04-01T17:28:07;60.00;;;41.67;;
49458;SDS011;35354;51.296;16.924;2023-04-01T17:36:52;68.47;;;44.63;;
49458;SDS011;35354;51.296;16.924;2023-04-01T17:42:38;59.70;;;41.30;;
49458;SDS011;35354;51.296;16.924;2023-04-01T17:53:14;69.55;;;49.60;;
49458;SDS011;35354;51.296;16.924;2023-04-01T17:56:07;74.07;;;53.45;;
49458;SDS011;35354;51.296;16.924;2023-04-01T18:01:49;83.72;;;56.22;;
49458;SDS011;35354;51.296;16.924;2023-04-01T18:10:27;64.78;;;45.50;;
49458;SDS011;35354;51.296;16.924;2023-04-01T18:18:49;77.22;;;48.88;;
49458;SDS011;35354;51.296;16.924;2023-04-01T18:24:28;124.00;;;75.25;;
49458;SDS011;35354;51.296;16.924;2023-04-01T18:29:34;114.43;;;66.50;;
49458;SDS011;35354;51.296;16.924;2023-04-01T18:35:17;72.80;;;49.03;;
49458;SDS011;35354;51.296;16.924;2023-04-01T18:38:14;73.20;;;52.35;;
49458;SDS011;35354;51.296;16.924;2023-04-01T18:46:41;62.22;;;40.83;;
49458;SDS011;35354;51.296;16.924;2023-04-01T18:49:17;81.32;;;60.42;;
49458;SDS011;35354;51.296;16.924;2023-04-01T18:57:27;80.05;;;59.78;;
49458;SDS011;35354;51.296;16.924;2023-04-01T19:00:17;57.90;;;41.78;;
49458;SDS011;35354;51.296;16.924;2023-04-01T19:02:55;51.72;;;39.85;;
49458;SDS011;35354;51.296;16.924;2023-04-01T19:05:34;54.05;;;40.03;;
49458;SDS011;35354;51.296;16.924;2023-04-01T19:13:53;56.47;;;40.63;;
49458;SDS011;35354;51.296;16.924;2023-04-01T19:19:21;66.32;;;47.20;;
49458;SDS011;35354;51.296;16.924;2023-04-01T19:22:13;54.10;;;38.45;;
49458;SDS011;35354;51.296;16.924;2023-04-01T19:24:57;49.10;;;37.45;;
49458;SDS011;35354;51.296;16.924;2023-04-01T19:27:41;63.00;;;43.22;;
49458;SDS011;35354;51.296;16.924;2023-04-01T19:30:17;50.15;;;38.88;;
49458;SDS011;35354;51.296;16.924;2023-04-01T19:41:05;58.90;;;41.33;;
49458;SDS011;35354;51.296;16.924;2023-04-01T19:46:56;68.30;;;48.90;;
49458;SDS011;35354;51.296;16.924;2023-04-01T19:49:51;72.88;;;51.65;;
49458;SDS011;35354;51.296;16.924;2023-04-01T19:52:22;63.30;;;47.55;;
49458;SDS011;35354;51.296;16.924;2023-04-01T19:57:26;64.88;;;45.05;;
49458;SDS011;35354;51.296;16.924;2023-04-01T20:00:21;185.75;;;140.10;;
49458;SDS011;35354;51.296;16.924;2023-04-01T20:05:44;78.07;;;52.42;;
49458;SDS011;35354;51.296;16.924;2023-04-01T20:11:34;62.78;;;46.58;;
49458;SDS011;35354;51.296;16.924;2023-04-01T20:14:09;81.50;;;54.13;;
49458;SDS011;35354;51.296;16.924;2023-04-01T20:19:13;83.30;;;54.58;;
49458;SDS011;35354;51.296;16.924;2023-04-01T20:21:45;109.43;;;63.30;;
49458;SDS011;35354;51.296;16.924;2023-04-01T20:27:00;62.78;;;45.33;;
49458;SDS011;35354;51.296;16.924;2023-04-01T20:29:41;65.70;;;44.95;;
49458;SDS011;35354;51.296;16.924;2023-04-01T20:35:23;75.57;;;50.15;;
49458;SDS011;35354;51.296;16.924;2023-04-01T20:46:22;49.65;;;40.08;;
49458;SDS011;35354;51.296;16.924;2023-04-01T20:57:25;52.35;;;40.83;;
49458;SDS011;35354;51.296;16.924;2023-04-01T21:00:11;58.00;;;43.58;;
49458;SDS011;35354;51.296;16.924;2023-04-01T21:08:08;61.00;;;42.08;;
49458;SDS011;35354;51.296;16.924;2023-04-01T21:10:43;59.17;;;43.85;;
49458;SDS011;35354;51.296;16.924;2023-04-01T21:16:04;57.70;;;42.80;;
49458;SDS011;35354;51.296;16.924;2023-04-01T21:21:16;58.38;;;41.55;;
49458;SDS011;35354;51.296;16.924;2023-04-01T21:24:26;62.67;;;43.45;;
49458;SDS011;35354;51.296;16.924;2023-04-01T21:35:50;59.85;;;40.60;;
49458;SDS011;35354;51.296;16.924;2023-04-01T21:41:20;64.93;;;44.35;;
49458;SDS011;35354;51.296;16.924;2023-04-01T21:44:16;63.47;;;39.92;;
49458;SDS011;35354;51.296;16.924;2023-04-01T21:49:40;89.53;;;54.85;;
49458;SDS011;35354;51.296;16.924;2023-04-01T21:52:44;60.60;;;43.13;;
49458;SDS011;35354;51.296;16.924;2023-04-01T22:00:32;59.63;;;43.08;;
49458;SDS011;35354;51.296;16.924;2023-04-01T22:06:02;50.47;;;37.22;;
49458;SDS011;35354;51.296;16.924;2023-04-01T22:22:49;54.00;;;36.08;;
49458;SDS011;35354;51.296;16.924;2023-04-01T22:25:33;47.72;;;35.63;;
49458;SDS011;35354;51.296;16.924;2023-04-01T22:28:09;57.95;;;41.17;;
49458;SDS011;35354;51.296;16.924;2023-04-01T22:30:52;48.40;;;36.60;;
49458;SDS011;35354;51.296;16.924;2023-04-01T22:33:28;46.28;;;35.58;;
49458;SDS011;35354;51.296;16.924;2023-04-01T22:38:31;37.53;;;28.85;;
49458;SDS011;35354;51.296;16.924;2023-04-01T22:41:26;34.78;;;25.25;;
49458;SDS011;35354;51.296;16.924;2023-04-01T22:43:56;33.33;;;26.92;;
49458;SDS011;35354;51.296;16.924;2023-04-01T22:54:37;52.72;;;34.97;;
49458;SDS011;35354;51.296;16.924;2023-04-01T22:59:52;46.08;;;31.38;;
49458;SDS011;35354;51.296;16.924;2023-04-01T23:02:25;43.08;;;31.17;;
49458;SDS011;35354;51.296;16.924;2023-04-01T23:04:56;51.10;;;34.70;;
49458;SDS011;35354;51.296;16.924;2023-04-01T23:10:49;37.50;;;28.95;;
49458;SDS011;35354;51.296;16.924;2023-04-01T23:13:18;37.90;;;27.55;;
49458;SDS011;35354;51.296;16.924;2023-04-01T23:15:59;38.40;;;28.00;;
49458;SDS011;35354;51.296;16.924;2023-04-01T23:18:45;39.67;;;30.35;;
49458;SDS011;35354;51.296;16.924;2023-04-01T23:24:53;155.27;;;71.20;;
49458;SDS011;35354;51.296;16.924;2023-04-01T23:27:19;38.70;;;28.67;;
49458;SDS011;35354;51.296;16.924;2023-04-01T23:29:52;43.22;;;30.05;;
49458;SDS011;35354;51.296;16.924;2023-04-01T23:32:22;46.60;;;30.50;;
49458;SDS011;35354;51.296;16.924;2023-04-01T23:34:55;38.80;;;28.05;;
49458;SDS011;35354;51.296;16.924;2023-04-01T23:37:25;36.92;;;28.48;;
49458;SDS011;35354;51.296;16.924;2023-04-01T23:44:50;47.65;;;35.28;;
49458;SDS011;35354;51.296;16.924;2023-04-01T23:47:19;48.97;;;34.95;;
49458;SDS011;35354;51.296;16.924;2023-04-01T23:50:00;46.30;;;34.35;;
49458;SDS011;35354;51.296;16.924;2023-04-01T23:52:30;48.28;;;34.33;;
49458;SDS011;35354;51.296;16.924;2023-04-01T23:55:08;49.67;;;35.85;;
49458;SDS011;35354;51.296;16.924;2023-04-01T23:57:39;51.03;;;37.15;;
